Miltona, Minnesota
Current Conditions -  °F | °C
As of 6:53 PM on Saturday 22 Nov 2014 (Local Time) from KAXN Reporting Station
Haze Haze  
Wind Chill: 21°   Ceiling: 200
Heat Index: 32°   Visibility: 0.75mi
Dew Point: 32°   Wind: 16mph
Humidity: 100%   Direction: 150°SSE
Pressure: 29.51"   Gusts: NA
Location:  46.04°N, 95.29°W
Report Text: KAXN 230053Z AUTO 15014KT 3/4SM BR VV002 00/00 A2951 RMK AO2 SLP010 T00000000
Loading
Personal Weather Stations






























Interactive Weather Map New forecast layout! Learn more

10-Day Weather Forecast

Advertisements
Track Severe Weather on mobile